Time;durP1;ratioP1;P1;durP2;ratioP2;P2;SDS_P1;SDS_P2;PMS_P1;PMS_P2;Temp;Humidity;BMP_temperature;BMP_pressure;BME280_temperature;BME280_humidity;BME280_pressure;Samples;Min_cycle;Max_cycle;Signal;HPM_P1;HPM_P2
2022/09/06 00:00:07;;;;;;;;;8.67;7.00;;;;;;;;5039482;28;46759;-62
2022/09/06 00:02:33;;;;;;;;;9.67;8.00;;;;;;;;5040822;28;45416;-63
2022/09/06 00:04:58;;;;;;;;;8.00;8.00;;;;;;;;5038439;28;45393;-63
2022/09/06 00:07:23;;;;;;;;;7.00;7.00;;;;;;;;5041391;28;45391;-64
2022/09/06 00:09:48;;;;;;;;;7.33;6.00;;;;;;;;5038453;28;45400;-63
2022/09/06 00:12:14;;;;;;;;;7.67;5.33;;;;;;;;5035489;28;45246;-63
2022/09/06 00:14:39;;;;;;;;;7.67;6.67;;;;;;;;5038517;28;45277;-63
2022/09/06 00:17:04;;;;;;;;;7.00;7.00;;;;;;;;5042385;28;45457;-63
2022/09/06 00:19:29;;;;;;;;;6.00;6.00;;;;;;;;5041626;28;45340;-63
2022/09/06 00:21:54;;;;;;;;;6.00;4.67;;;;;;;;5044589;28;45629;-63
2022/09/06 00:24:20;;;;;;;;;7.33;7.33;;;;;;;;5040111;28;45586;-63
2022/09/06 00:26:45;;;;;;;;;6.33;5.33;;;;;;;;5044806;28;45408;-63
2022/09/06 00:29:10;;;;;;;;;7.00;6.00;;;;;;;;5041840;28;46457;-63
2022/09/06 00:31:35;;;;;;;;;6.33;6.33;;;;;;;;5043965;28;45317;-63
2022/09/06 00:34:01;;;;;;;;;7.33;6.00;;;;;;;;5041743;28;45361;-63
2022/09/06 00:36:26;;;;;;;;;7.00;6.33;;;;;;;;5044734;28;45313;-63
2022/09/06 00:38:51;;;;;;;;;9.67;7.00;;;;;;;;5041531;28;45435;-63
2022/09/06 00:41:17;;;;;;;;;6.67;6.67;;;;;;;;5045553;28;45353;-63
2022/09/06 00:43:42;;;;;;;;;5.00;5.00;;;;;;;;5041906;28;45322;-63
2022/09/06 00:46:09;;;;;;;;;6.00;5.00;;;;;;;;5038046;28;45464;-63
2022/09/06 00:48:36;;;;;;;;;4.67;4.67;;;;;;;;5043664;28;45552;-63
2022/09/06 00:51:03;;;;;;;;;7.00;5.33;;;;;;;;5038950;28;45322;-63
2022/09/06 00:53:29;;;;;;;;;4.33;3.00;;;;;;;;5039299;28;45452;-63
2022/09/06 00:55:54;;;;;;;;;6.67;6.67;;;;;;;;5044547;28;45544;-63
2022/09/06 00:58:20;;;;;;;;;5.67;5.33;;;;;;;;5043562;28;45499;-64
2022/09/06 01:00:45;;;;;;;;;5.67;5.67;;;;;;;;5039881;28;45369;-64
2022/09/06 01:03:11;;;;;;;;;5.33;5.33;;;;;;;;5041553;28;45462;-64
2022/09/06 01:05:49;;;;;;;;;5.00;5.00;;;;;;;;5056901;28;45835;-64
2022/09/06 01:08:20;;;;;;;;;7.33;6.00;;;;;;;;5043015;28;45601;-64
2022/09/06 01:10:46;;;;;;;;;7.33;6.00;;;;;;;;5041823;28;45401;-65
2022/09/06 01:13:21;;;;;;;;;5.33;5.33;;;;;;;;5041862;28;45590;-62
2022/09/06 01:15:55;;;;;;;;;6.33;6.33;;;;;;;;5041360;28;45322;-65
2022/09/06 01:18:30;;;;;;;;;5.00;5.00;;;;;;;;5039375;28;46684;-65
2022/09/06 01:21:15;;;;;;;;;7.00;7.00;;;;;;;;5044592;28;45360;-65
2022/09/06 01:23:59;;;;;;;;;6.33;6.00;;;;;;;;5040018;28;45427;-66
2022/09/06 01:26:30;;;;;;;;;8.00;7.00;;;;;;;;5045203;28;45563;-65
2022/09/06 01:28:56;;;;;;;;;6.33;6.00;;;;;;;;5039800;28;45254;-65
2022/09/06 01:31:24;;;;;;;;;5.00;5.00;;;;;;;;5040027;28;45682;-64
2022/09/06 01:34:05;;;;;;;;;6.00;6.00;;;;;;;;5040570;28;45575;-64
2022/09/06 01:36:37;;;;;;;;;6.67;6.67;;;;;;;;5041391;28;45405;-65
2022/09/06 01:39:03;;;;;;;;;7.67;7.00;;;;;;;;5039860;28;47359;-65
2022/09/06 01:41:28;;;;;;;;;4.67;4.67;;;;;;;;5033907;28;45325;-65
2022/09/06 01:43:54;;;;;;;;;8.00;8.00;;;;;;;;5041821;28;45349;-65
2022/09/06 01:46:30;;;;;;;;;7.33;7.00;;;;;;;;5043962;28;45514;-65
2022/09/06 01:49:14;;;;;;;;;7.00;7.00;;;;;;;;5035148;28;45404;-64
2022/09/06 01:51:43;;;;;;;;;7.00;6.00;;;;;;;;5043109;28;45351;-64
2022/09/06 01:54:27;;;;;;;;;6.33;6.33;;;;;;;;5039550;28;45554;-64
2022/09/06 01:56:52;;;;;;;;;8.00;8.00;;;;;;;;5044997;28;45320;-64
2022/09/06 01:59:17;;;;;;;;;8.67;6.33;;;;;;;;5038027;28;46222;-64
2022/09/06 02:01:42;;;;;;;;;7.00;6.67;;;;;;;;5044339;28;45483;-64
2022/09/06 02:04:26;;;;;;;;;7.67;7.00;;;;;;;;5037299;28;45231;-64
2022/09/06 02:06:56;;;;;;;;;6.33;6.33;;;;;;;;5035125;28;46207;-65
2022/09/06 02:09:22;;;;;;;;;8.00;6.67;;;;;;;;5037218;28;46223;-64
2022/09/06 02:11:50;;;;;;;;;8.00;7.00;;;;;;;;5044269;28;45318;-64
2022/09/06 02:14:23;;;;;;;;;9.33;6.67;;;;;;;;5035718;28;45445;-64
2022/09/06 02:16:52;;;;;;;;;6.00;6.00;;;;;;;;5044697;28;45383;-63
2022/09/06 02:19:20;;;;;;;;;8.67;8.67;;;;;;;;5037375;28;45368;-63
2022/09/06 02:21:46;;;;;;;;;7.00;7.00;;;;;;;;5044027;28;45413;-65
2022/09/06 02:24:18;;;;;;;;;11.00;8.00;;;;;;;;5041676;28;45297;-65
2022/09/06 02:26:45;;;;;;;;;7.67;7.00;;;;;;;;5057075;28;45591;-65
2022/09/06 02:29:10;;;;;;;;;10.33;9.00;;;;;;;;5041261;28;45460;-65
2022/09/06 02:31:35;;;;;;;;;10.33;10.33;;;;;;;;5043855;28;45436;-65
2022/09/06 02:34:01;;;;;;;;;8.00;8.00;;;;;;;;5041823;28;45618;-65
2022/09/06 02:36:28;;;;;;;;;11.00;10.00;;;;;;;;5056971;28;45440;-64
2022/09/06 02:38:54;;;;;;;;;11.00;10.33;;;;;;;;5041307;28;45732;-64
2022/09/06 02:41:22;;;;;;;;;11.00;11.00;;;;;;;;5042667;28;45448;-64
2022/09/06 02:43:48;;;;;;;;;6.67;5.67;;;;;;;;5041732;28;45406;-64
2022/09/06 02:46:13;;;;;;;;;10.67;10.67;;;;;;;;5044045;28;45439;-64
2022/09/06 02:48:38;;;;;;;;;16.00;12.00;;;;;;;;5041521;28;45364;-64
2022/09/06 02:51:05;;;;;;;;;10.33;10.33;;;;;;;;5042324;28;45343;-64
2022/09/06 02:53:30;;;;;;;;;18.67;14.00;;;;;;;;5040673;28;45679;-64
2022/09/06 02:55:56;;;;;;;;;11.67;11.00;;;;;;;;5058073;28;45549;-64
2022/09/06 02:58:21;;;;;;;;;15.00;15.00;;;;;;;;5038904;28;45908;-65
2022/09/06 03:00:47;;;;;;;;;15.00;13.67;;;;;;;;5043088;28;45302;-64
2022/09/06 03:03:12;;;;;;;;;10.67;10.67;;;;;;;;5040873;28;48299;-64
2022/09/06 03:05:37;;;;;;;;;11.33;10.00;;;;;;;;5055326;28;45424;-64
2022/09/06 03:08:02;;;;;;;;;17.00;12.67;;;;;;;;5041112;28;46294;-64
2022/09/06 03:10:28;;;;;;;;;15.33;13.00;;;;;;;;5038594;28;45424;-64
2022/09/06 03:12:53;;;;;;;;;10.67;10.67;;;;;;;;5041256;28;45339;-64
2022/09/06 03:15:19;;;;;;;;;11.33;11.33;;;;;;;;5054700;28;45390;-64
2022/09/06 03:17:44;;;;;;;;;14.00;13.00;;;;;;;;5053901;28;46261;-64
2022/09/06 03:20:10;;;;;;;;;14.00;11.67;;;;;;;;5037327;28;45457;-64
2022/09/06 03:22:35;;;;;;;;;16.00;13.33;;;;;;;;5043707;28;45448;-64
2022/09/06 03:25:01;;;;;;;;;11.67;11.67;;;;;;;;5037008;28;45274;-64
2022/09/06 03:27:26;;;;;;;;;11.33;11.33;;;;;;;;5043107;28;45579;-64
2022/09/06 03:29:51;;;;;;;;;11.33;11.33;;;;;;;;5039606;28;45567;-64
2022/09/06 03:32:16;;;;;;;;;13.00;12.00;;;;;;;;5042821;28;45785;-64
2022/09/06 03:34:41;;;;;;;;;10.67;10.67;;;;;;;;5055407;28;45545;-64
2022/09/06 03:37:07;;;;;;;;;9.00;9.00;;;;;;;;5037680;28;47852;-64
2022/09/06 03:39:32;;;;;;;;;11.67;9.00;;;;;;;;5036122;28;45381;-66
2022/09/06 03:41:58;;;;;;;;;9.33;9.33;;;;;;;;5043091;28;45660;-65
2022/09/06 03:44:23;;;;;;;;;10.33;9.67;;;;;;;;5035513;28;45607;-65
2022/09/06 03:46:50;;;;;;;;;9.33;9.33;;;;;;;;5040612;28;46310;-64
2022/09/06 03:49:15;;;;;;;;;11.00;11.00;;;;;;;;5051454;28;45746;-65
2022/09/06 03:51:40;;;;;;;;;35.50;32.75;;;;;;;;5038581;28;45422;-65
2022/09/06 03:54:05;;;;;;;;;23.25;23.25;;;;;;;;5037980;28;46021;-65
2022/09/06 03:56:30;;;;;;;;;14.00;12.00;;;;;;;;5039401;28;45477;-65
2022/09/06 03:58:55;;;;;;;;;10.67;10.33;;;;;;;;5039784;28;45423;-65
2022/09/06 04:01:21;;;;;;;;;11.00;11.00;;;;;;;;5042455;28;45314;-65
2022/09/06 04:03:46;;;;;;;;;12.67;10.67;;;;;;;;5039212;28;45588;-65
2022/09/06 04:06:11;;;;;;;;;10.33;10.00;;;;;;;;5042161;28;46647;-65
2022/09/06 04:08:37;;;;;;;;;14.67;13.00;;;;;;;;5037382;28;45501;-65
2022/09/06 04:11:03;;;;;;;;;11.67;11.00;;;;;;;;5034448;28;45497;-65
2022/09/06 04:13:28;;;;;;;;;8.33;8.33;;;;;;;;5038602;28;45468;-65
2022/09/06 04:15:53;;;;;;;;;12.00;11.00;;;;;;;;5038530;28;45590;-65
2022/09/06 04:18:19;;;;;;;;;10.67;10.67;;;;;;;;5039455;28;45413;-65
2022/09/06 04:20:46;;;;;;;;;13.00;11.33;;;;;;;;5041791;28;45640;-65
2022/09/06 04:23:11;;;;;;;;;14.00;14.00;;;;;;;;5040324;28;45243;-65
2022/09/06 04:25:37;;;;;;;;;10.00;9.67;;;;;;;;5039860;28;45480;-65
2022/09/06 04:28:02;;;;;;;;;8.33;8.33;;;;;;;;5039752;28;45179;-65
2022/09/06 04:30:27;;;;;;;;;9.00;9.00;;;;;;;;5040485;28;45427;-65
2022/09/06 04:32:52;;;;;;;;;10.67;10.33;;;;;;;;5040939;28;45268;-64
2022/09/06 04:35:17;;;;;;;;;12.00;10.67;;;;;;;;5038600;28;45488;-64
2022/09/06 04:37:43;;;;;;;;;9.67;9.67;;;;;;;;5040603;28;45531;-64
2022/09/06 04:40:08;;;;;;;;;10.33;10.33;;;;;;;;5038901;28;45498;-64
2022/09/06 04:42:33;;;;;;;;;9.67;9.67;;;;;;;;5041915;28;45358;-65
2022/09/06 04:44:59;;;;;;;;;10.67;10.67;;;;;;;;5034400;28;45629;-64
2022/09/06 04:47:24;;;;;;;;;8.00;8.00;;;;;;;;5039533;28;45272;-64
2022/09/06 04:49:49;;;;;;;;;11.00;9.33;;;;;;;;5039030;28;45392;-64
2022/09/06 04:52:15;;;;;;;;;10.00;10.00;;;;;;;;5041404;28;45689;-64
2022/09/06 04:54:40;;;;;;;;;10.33;9.67;;;;;;;;5031443;28;45798;-64
2022/09/06 04:57:05;;;;;;;;;10.33;8.33;;;;;;;;5040741;28;45258;-63
2022/09/06 04:59:31;;;;;;;;;7.00;7.00;;;;;;;;5033387;28;45377;-63
2022/09/06 05:01:56;;;;;;;;;12.00;8.00;;;;;;;;5040893;28;45236;-63
2022/09/06 05:04:21;;;;;;;;;8.00;8.00;;;;;;;;5035368;28;45364;-64
2022/09/06 05:06:47;;;;;;;;;6.00;6.00;;;;;;;;5042623;28;45492;-64
2022/09/06 05:09:12;;;;;;;;;7.00;7.00;;;;;;;;5040003;28;45370;-65
2022/09/06 05:11:37;;;;;;;;;10.00;8.00;;;;;;;;5044254;28;45344;-63
2022/09/06 05:14:02;;;;;;;;;10.00;7.33;;;;;;;;5039151;28;45372;-64
2022/09/06 05:16:28;;;;;;;;;6.67;6.67;;;;;;;;5044309;28;45358;-64
2022/09/06 05:18:53;;;;;;;;;7.33;6.67;;;;;;;;5039046;28;45243;-65
2022/09/06 05:21:18;;;;;;;;;7.00;7.00;;;;;;;;5041736;28;45251;-65
2022/09/06 05:23:44;;;;;;;;;7.67;7.00;;;;;;;;5037827;28;45655;-64
2022/09/06 05:26:09;;;;;;;;;7.33;7.33;;;;;;;;5040420;28;45439;-64
2022/09/06 05:28:34;;;;;;;;;7.00;6.00;;;;;;;;5039539;28;45254;-65
2022/09/06 05:31:06;;;;;;;;;6.67;6.67;;;;;;;;5043406;28;45368;-66
2022/09/06 05:33:31;;;;;;;;;7.00;7.00;;;;;;;;5039235;28;45458;-65
2022/09/06 05:35:57;;;;;;;;;8.67;8.67;;;;;;;;5043190;28;45423;-65
2022/09/06 05:38:22;;;;;;;;;13.00;10.33;;;;;;;;5039665;28;45266;-65
2022/09/06 05:40:48;;;;;;;;;14.67;12.00;;;;;;;;5043639;28;45458;-65
2022/09/06 05:43:13;;;;;;;;;14.33;13.33;;;;;;;;5039704;28;45345;-67
2022/09/06 05:45:38;;;;;;;;;14.33;14.33;;;;;;;;5034543;28;45452;-65
2022/09/06 05:48:03;;;;;;;;;14.67;14.67;;;;;;;;5038523;28;45625;-66
2022/09/06 05:50:29;;;;;;;;;18.67;18.00;;;;;;;;5034445;28;45524;-64
2022/09/06 05:52:54;;;;;;;;;15.33;13.67;;;;;;;;5040944;28;46215;-64
2022/09/06 05:55:20;;;;;;;;;14.33;14.33;;;;;;;;5050643;28;45532;-64
2022/09/06 05:57:45;;;;;;;;;15.00;12.33;;;;;;;;5042376;28;45207;-64
2022/09/06 06:00:11;;;;;;;;;8.00;8.00;;;;;;;;5040782;28;45278;-64
2022/09/06 06:02:36;;;;;;;;;8.00;8.00;;;;;;;;5042460;28;45291;-65
2022/09/06 06:05:01;;;;;;;;;8.00;8.00;;;;;;;;5041505;28;45452;-64
2022/09/06 06:07:26;;;;;;;;;11.00;10.00;;;;;;;;5042402;28;45361;-64
2022/09/06 06:09:51;;;;;;;;;8.67;8.67;;;;;;;;5038050;28;45320;-64
2022/09/06 06:12:17;;;;;;;;;9.00;8.00;;;;;;;;5041822;28;45489;-65
2022/09/06 06:14:42;;;;;;;;;6.00;6.00;;;;;;;;5036861;28;45235;-65
2022/09/06 06:17:07;;;;;;;;;8.00;7.67;;;;;;;;5042372;28;45327;-65
2022/09/06 06:19:32;;;;;;;;;10.00;9.00;;;;;;;;5037429;28;45323;-66
2022/09/06 06:21:58;;;;;;;;;7.33;7.33;;;;;;;;5041717;28;45516;-64
2022/09/06 06:24:23;;;;;;;;;8.00;7.00;;;;;;;;5034837;28;45236;-65
2022/09/06 06:26:48;;;;;;;;;6.67;6.67;;;;;;;;5040083;28;45261;-64
2022/09/06 06:29:14;;;;;;;;;8.00;6.67;;;;;;;;5038212;28;45704;-65
2022/09/06 06:31:39;;;;;;;;;8.00;8.00;;;;;;;;5042047;28;45333;-66
2022/09/06 06:34:05;;;;;;;;;9.67;9.67;;;;;;;;5038747;28;45350;-64
2022/09/06 06:36:32;;;;;;;;;7.00;7.00;;;;;;;;5043056;28;45279;-66
2022/09/06 06:38:58;;;;;;;;;11.00;8.00;;;;;;;;5036939;28;45355;-66
2022/09/06 06:41:25;;;;;;;;;8.00;6.00;;;;;;;;5041717;28;45456;-64
2022/09/06 06:43:54;;;;;;;;;7.33;6.67;;;;;;;;5039084;28;45458;-65
2022/09/06 06:46:20;;;;;;;;;8.00;8.00;;;;;;;;5039245;28;45495;-65
2022/09/06 06:48:45;;;;;;;;;7.00;7.00;;;;;;;;5040439;28;45494;-65
2022/09/06 06:51:15;;;;;;;;;9.67;6.67;;;;;;;;5036688;28;45454;-65
2022/09/06 06:53:41;;;;;;;;;6.00;6.00;;;;;;;;5024778;28;45334;-67
2022/09/06 06:56:18;;;;;;;;;8.00;8.00;;;;;;;;5041350;28;45416;-64
2022/09/06 06:58:44;;;;;;;;;10.00;10.00;;;;;;;;5025467;28;45162;-65
2022/09/06 07:01:09;;;;;;;;;12.00;12.00;;;;;;;;5057407;28;45322;-65
2022/09/06 07:03:35;;;;;;;;;9.67;9.00;;;;;;;;5039485;28;45484;-64
2022/09/06 07:06:00;;;;;;;;;7.00;7.00;;;;;;;;5037532;28;45479;-64
2022/09/06 07:08:25;;;;;;;;;8.00;7.33;;;;;;;;5055163;28;45479;-64
2022/09/06 07:10:51;;;;;;;;;8.00;8.00;;;;;;;;5040074;28;46599;-65
2022/09/06 07:13:16;;;;;;;;;8.33;8.33;;;;;;;;5038745;28;45309;-64
2022/09/06 07:15:41;;;;;;;;;9.00;6.00;;;;;;;;5041651;28;45777;-64
2022/09/06 07:18:07;;;;;;;;;6.00;5.33;;;;;;;;5039797;28;45311;-64
2022/09/06 07:20:32;;;;;;;;;8.33;6.67;;;;;;;;5039960;28;45471;-64
2022/09/06 07:22:59;;;;;;;;;6.67;6.00;;;;;;;;5039803;28;45569;-65
2022/09/06 07:25:24;;;;;;;;;7.00;7.00;;;;;;;;5052327;28;45255;-65
2022/09/06 07:28:00;;;;;;;;;9.33;6.00;;;;;;;;5041657;28;45521;-64
2022/09/06 07:30:26;;;;;;;;;7.67;7.00;;;;;;;;5039280;28;45544;-64
2022/09/06 09:34:32;;;;;;;;;7.00;5.67;;;;;;;;5040924;28;58043;-65
2022/09/06 09:37:09;;;;;;;;;8.00;7.00;;;;;;;;5058900;28;46837;-65
2022/09/06 09:39:36;;;;;;;;;5.00;4.00;;;;;;;;5033702;28;45301;-65
2022/09/06 09:42:02;;;;;;;;;5.00;5.00;;;;;;;;5023873;28;45259;-65
2022/09/06 09:44:28;;;;;;;;;7.00;6.00;;;;;;;;5040630;28;45544;-64
2022/09/06 09:46:53;;;;;;;;;5.00;4.00;;;;;;;;5038893;28;47942;-63
2022/09/06 09:49:23;;;;;;;;;5.00;4.67;;;;;;;;5022889;28;45386;-64
2022/09/06 09:52:08;;;;;;;;;5.00;5.00;;;;;;;;5033955;28;45157;-65
2022/09/06 09:54:38;;;;;;;;;5.67;5.67;;;;;;;;5032170;28;45587;-65
2022/09/06 09:57:08;;;;;;;;;5.67;4.67;;;;;;;;5044154;28;45730;-65
2022/09/06 09:59:33;;;;;;;;;5.33;5.00;;;;;;;;5059543;28;45227;-64
2022/09/06 10:02:00;;;;;;;;;4.00;4.00;;;;;;;;5044044;28;45261;-66
2022/09/06 10:04:30;;;;;;;;;3.00;3.00;;;;;;;;5044586;28;45354;-64
2022/09/06 10:07:09;;;;;;;;;4.00;4.00;;;;;;;;5044094;28;45699;-64
2022/09/06 10:09:36;;;;;;;;;8.33;7.67;;;;;;;;5032041;28;45281;-65
2022/09/06 10:12:01;;;;;;;;;5.00;5.00;;;;;;;;5039284;28;45383;-64
2022/09/06 10:14:28;;;;;;;;;5.00;5.00;;;;;;;;5024078;28;45551;-65
2022/09/06 10:16:54;;;;;;;;;4.67;4.67;;;;;;;;5023751;28;46266;-64
2022/09/06 10:19:20;;;;;;;;;5.00;5.00;;;;;;;;5023466;28;45322;-65
2022/09/06 10:21:46;;;;;;;;;5.00;5.00;;;;;;;;5035538;28;45425;-65
2022/09/06 10:24:20;;;;;;;;;5.00;5.00;;;;;;;;5044558;28;45214;-65
2022/09/06 10:26:50;;;;;;;;;5.00;5.00;;;;;;;;5042156;28;47916;-65
2022/09/06 10:29:23;;;;;;;;;4.67;3.33;;;;;;;;5034544;28;45437;-64
2022/09/06 10:32:05;;;;;;;;;10.33;6.00;;;;;;;;5023525;28;45245;-65
2022/09/06 10:34:45;;;;;;;;;6.00;5.67;;;;;;;;5023550;28;45306;-66
2022/09/06 10:37:10;;;;;;;;;8.67;6.00;;;;;;;;5023260;28;46419;-65
2022/09/06 10:39:53;;;;;;;;;4.67;4.67;;;;;;;;5022732;28;45310;-65
2022/09/06 10:42:37;;;;;;;;;3.33;3.33;;;;;;;;5026891;28;45222;-65
2022/09/06 10:45:11;;;;;;;;;10.00;8.00;;;;;;;;5024322;28;46169;-65
2022/09/06 10:47:47;;;;;;;;;7.33;7.33;;;;;;;;5023146;28;45286;-64
2022/09/06 10:50:13;;;;;;;;;6.00;6.00;;;;;;;;5023729;28;45161;-65
2022/09/06 10:52:42;;;;;;;;;7.33;7.00;;;;;;;;5023679;28;45231;-64
2022/09/06 10:55:11;;;;;;;;;7.00;5.67;;;;;;;;5023854;28;45508;-64
2022/09/06 10:57:45;;;;;;;;;6.00;6.00;;;;;;;;5023409;28;45235;-64
2022/09/06 11:00:12;;;;;;;;;6.33;5.33;;;;;;;;5023543;28;45309;-63
2022/09/06 11:02:43;;;;;;;;;11.67;7.00;;;;;;;;5023332;28;45290;-65
2022/09/06 11:05:31;;;;;;;;;6.00;4.67;;;;;;;;5039547;28;45332;-65
2022/09/06 11:07:59;;;;;;;;;6.00;4.67;;;;;;;;5016247;28;47340;-64
2022/09/06 11:10:27;;;;;;;;;8.00;5.00;;;;;;;;5023118;28;45291;-65
2022/09/06 11:12:56;;;;;;;;;5.33;4.00;;;;;;;;5023747;28;45563;-65
2022/09/06 11:15:23;;;;;;;;;7.00;5.00;;;;;;;;5023843;28;45511;-65
2022/09/06 11:18:06;;;;;;;;;5.33;5.00;;;;;;;;5022978;28;46608;-65
2022/09/06 11:20:34;;;;;;;;;7.00;6.33;;;;;;;;5023888;28;45402;-66
2022/09/06 11:23:06;;;;;;;;;5.67;5.67;;;;;;;;5042288;28;45278;-65
2022/09/06 11:25:49;;;;;;;;;7.00;7.00;;;;;;;;5042791;28;45498;-66
2022/09/06 11:28:20;;;;;;;;;7.33;7.33;;;;;;;;5057653;28;45592;-65
2022/09/06 11:30:46;;;;;;;;;8.33;8.33;;;;;;;;5023480;28;45274;-65
2022/09/06 11:33:38;;;;;;;;;9.33;7.67;;;;;;;;5022778;28;45454;-65
2022/09/06 11:36:29;;;;;;;;;8.33;8.33;;;;;;;;5021125;28;45419;-65
2022/09/06 11:38:59;;;;;;;;;9.33;8.00;;;;;;;;5022345;28;45616;-66
2022/09/06 11:41:44;;;;;;;;;10.33;10.33;;;;;;;;5022013;28;45227;-64
2022/09/06 11:44:10;;;;;;;;;10.33;8.67;;;;;;;;5032097;28;45258;-65
2022/09/06 11:46:35;;;;;;;;;7.67;7.67;;;;;;;;5022546;28;45227;-64
2022/09/06 11:49:01;;;;;;;;;8.33;8.33;;;;;;;;5022237;28;45248;-64
2022/09/06 11:51:40;;;;;;;;;9.67;8.00;;;;;;;;5022170;28;45253;-65
2022/09/06 11:54:17;;;;;;;;;7.67;5.33;;;;;;;;5021973;28;45435;-64
2022/09/06 11:56:45;;;;;;;;;7.00;7.00;;;;;;;;5022555;28;45620;-64
2022/09/06 11:59:28;;;;;;;;;7.67;6.67;;;;;;;;5021696;28;45585;-63
2022/09/06 12:02:25;;;;;;;;;7.33;7.33;;;;;;;;5022105;28;45241;-66
2022/09/06 12:14:35;;;;;;;;;5.00;5.00;;;;;;;;5033858;28;67567;-65
2022/09/06 12:17:00;;;;;;;;;5.00;5.00;;;;;;;;5046712;28;45577;-65
2022/09/06 12:19:40;;;;;;;;;8.00;6.00;;;;;;;;5041346;28;46361;-65
2022/09/06 12:22:24;;;;;;;;;5.33;5.00;;;;;;;;5040508;28;45377;-64
2022/09/06 12:24:51;;;;;;;;;9.33;6.00;;;;;;;;5045720;28;45471;-64
2022/09/06 12:27:21;;;;;;;;;3.00;3.00;;;;;;;;5044812;28;45384;-64
2022/09/06 12:29:50;;;;;;;;;7.33;6.00;;;;;;;;5035148;28;45219;-65
2022/09/06 12:32:21;;;;;;;;;6.00;4.67;;;;;;;;5041279;28;45662;-65
2022/09/06 12:34:46;;;;;;;;;4.33;4.33;;;;;;;;5026115;28;45357;-64
2022/09/06 12:37:11;;;;;;;;;6.33;5.67;;;;;;;;5025808;28;45656;-65
2022/09/06 12:39:37;;;;;;;;;7.33;4.33;;;;;;;;5025266;28;46233;-64
2022/09/06 12:42:09;;;;;;;;;5.00;5.00;;;;;;;;5026960;28;45510;-65
2022/09/06 12:44:36;;;;;;;;;5.67;4.00;;;;;;;;5034888;28;45330;-65
2022/09/06 12:47:09;;;;;;;;;11.00;10.00;;;;;;;;5025880;28;45237;-65
2022/09/06 12:49:34;;;;;;;;;5.33;5.00;;;;;;;;5025658;28;45653;-64
2022/09/06 12:52:07;;;;;;;;;4.33;3.33;;;;;;;;5025804;28;45384;-65
2022/09/06 12:54:32;;;;;;;;;3.33;3.33;;;;;;;;5025607;28;45289;-64
2022/09/06 12:57:11;;;;;;;;;3.00;3.00;;;;;;;;5026520;28;45392;-65
2022/09/06 12:59:36;;;;;;;;;2.67;2.67;;;;;;;;5025605;28;46716;-66
2022/09/06 13:02:07;;;;;;;;;1.67;1.67;;;;;;;;5025815;28;45258;-66
2022/09/06 13:04:38;;;;;;;;;1.67;1.67;;;;;;;;5025832;28;45445;-65
2022/09/06 13:07:05;;;;;;;;;3.33;3.33;;;;;;;;5025967;28;45449;-65
2022/09/06 13:09:30;;;;;;;;;5.00;5.00;;;;;;;;5024991;28;46550;-65
2022/09/06 13:12:02;;;;;;;;;4.67;4.33;;;;;;;;5025179;28;45288;-65
2022/09/06 13:14:28;;;;;;;;;4.33;3.00;;;;;;;;5024173;28;45282;-65
2022/09/06 13:16:57;;;;;;;;;4.33;4.33;;;;;;;;5025809;28;45180;-65
2022/09/06 13:19:30;;;;;;;;;6.33;5.00;;;;;;;;5024890;28;45537;-67
2022/09/06 13:21:57;;;;;;;;;6.33;5.00;;;;;;;;5029881;28;45378;-65
2022/09/06 13:24:23;;;;;;;;;3.33;3.33;;;;;;;;5024437;28;45419;-68
2022/09/06 13:26:49;;;;;;;;;4.33;3.00;;;;;;;;5025254;28;45324;-65
2022/09/06 13:29:14;;;;;;;;;4.00;4.00;;;;;;;;5031408;28;46318;-65
2022/09/06 13:31:43;;;;;;;;;6.00;6.00;;;;;;;;5025360;28;45281;-64
2022/09/06 13:34:08;;;;;;;;;5.67;5.00;;;;;;;;5039973;28;45332;-65
2022/09/06 13:36:33;;;;;;;;;8.00;7.00;;;;;;;;5025433;28;45180;-65
2022/09/06 13:39:02;;;;;;;;;6.33;6.33;;;;;;;;5024692;28;46396;-65
2022/09/06 13:41:27;;;;;;;;;7.67;5.00;;;;;;;;5040378;28;45379;-64
2022/09/06 13:44:24;;;;;;;;;6.33;5.67;;;;;;;;5035748;28;45291;-64
2022/09/06 13:46:54;;;;;;;;;5.67;4.67;;;;;;;;5015295;28;46541;-65
2022/09/06 13:49:19;;;;;;;;;6.00;4.33;;;;;;;;5024653;28;45622;-65
2022/09/06 13:51:44;;;;;;;;;7.00;6.00;;;;;;;;5024406;28;45223;-65
2022/09/06 13:54:11;;;;;;;;;5.00;5.00;;;;;;;;5039940;28;45356;-65
2022/09/06 13:56:38;;;;;;;;;7.00;6.00;;;;;;;;5024958;28;45259;-65
2022/09/06 13:59:03;;;;;;;;;5.00;5.00;;;;;;;;5024584;28;46176;-65
2022/09/06 14:01:29;;;;;;;;;5.00;5.00;;;;;;;;5024355;28;45298;-64
2022/09/06 14:03:54;;;;;;;;;6.00;4.00;;;;;;;;5024958;28;45319;-65
2022/09/06 14:06:20;;;;;;;;;7.00;7.00;;;;;;;;5024889;28;45563;-64
2022/09/06 14:08:45;;;;;;;;;6.67;5.67;;;;;;;;5024062;28;45434;-64
2022/09/06 14:11:12;;;;;;;;;5.00;5.00;;;;;;;;5024528;28;45513;-64
2022/09/06 14:13:37;;;;;;;;;5.67;5.67;;;;;;;;5024698;28;45215;-64
2022/09/06 14:16:04;;;;;;;;;8.33;6.00;;;;;;;;5024994;28;45266;-65
2022/09/06 14:18:30;;;;;;;;;12.75;10.50;;;;;;;;5024114;28;47121;-65
2022/09/06 14:20:57;;;;;;;;;5.67;5.67;;;;;;;;5028807;28;45234;-64
2022/09/06 14:23:22;;;;;;;;;6.75;4.75;;;;;;;;5042920;28;45462;-65
2022/09/06 14:25:48;;;;;;;;;6.00;6.00;;;;;;;;5044225;28;45512;-65
2022/09/06 14:28:14;;;;;;;;;3.33;3.33;;;;;;;;5036303;28;48321;-65
2022/09/06 14:30:39;;;;;;;;;7.00;7.00;;;;;;;;5025348;28;45405;-65
2022/09/06 14:33:04;;;;;;;;;6.00;5.00;;;;;;;;5023988;28;45303;-65
2022/09/06 14:35:30;;;;;;;;;3.67;3.67;;;;;;;;5023239;28;45443;-64
2022/09/06 14:37:57;;;;;;;;;5.00;5.00;;;;;;;;5023570;28;46169;-64
2022/09/06 14:40:22;;;;;;;;;6.00;6.00;;;;;;;;5021564;28;45757;-64
2022/09/06 14:42:47;;;;;;;;;4.00;4.00;;;;;;;;5030765;28;45261;-65
2022/09/06 14:45:13;;;;;;;;;4.33;4.33;;;;;;;;5026110;28;45596;-65
2022/09/06 14:47:38;;;;;;;;;3.00;3.00;;;;;;;;5023697;28;47087;-64
2022/09/06 14:50:03;;;;;;;;;2.33;2.33;;;;;;;;5022340;28;45411;-65
2022/09/06 14:52:28;;;;;;;;;3.33;3.33;;;;;;;;5023263;28;45268;-65
2022/09/06 14:54:54;;;;;;;;;3.67;3.67;;;;;;;;5021506;28;45416;-64
2022/09/06 14:57:19;;;;;;;;;5.00;3.67;;;;;;;;5023439;28;46255;-65
2022/09/06 14:59:44;;;;;;;;;4.00;4.00;;;;;;;;5023078;28;45211;-65
2022/09/06 15:02:09;;;;;;;;;8.33;4.00;;;;;;;;5023528;28;45298;-64
2022/09/06 15:04:35;;;;;;;;;2.33;2.33;;;;;;;;5038860;28;45252;-65
2022/09/06 15:16:09;;;;;;;;;4.00;4.00;;;;;;;;5023974;28;45333;-64
2022/09/06 15:18:34;;;;;;;;;3.00;3.00;;;;;;;;5038251;28;46010;-65
2022/09/06 15:21:10;;;;;;;;;3.00;3.00;;;;;;;;5027315;28;45504;-64
2022/09/06 15:38:59;;;;;;;;;1.67;1.67;;;;;;;;5031993;28;45766;-66
2022/09/06 15:41:25;;;;;;;;;1.67;1.67;;;;;;;;5057259;28;47526;-67
2022/09/06 15:43:58;;;;;;;;;4.00;2.33;;;;;;;;5034955;28;45393;-66
2022/09/06 15:46:37;;;;;;;;;3.67;3.67;;;;;;;;5036360;28;45261;-67
2022/09/06 15:49:04;;;;;;;;;1.67;1.67;;;;;;;;5038208;28;45500;-66
2022/09/06 15:51:31;;;;;;;;;2.67;2.67;;;;;;;;5026743;28;45349;-66
2022/09/06 15:53:58;;;;;;;;;3.00;3.00;;;;;;;;5039311;28;45377;-66
2022/09/06 15:56:23;;;;;;;;;1.00;1.00;;;;;;;;5038716;28;45220;-67
2022/09/06 16:17:06;;;;;;;;;3.67;3.33;;;;;;;;5032407;28;45459;-65
2022/09/06 16:19:31;;;;;;;;;3.00;2.00;;;;;;;;5039913;28;45430;-67
2022/09/06 16:21:57;;;;;;;;;1.67;1.67;;;;;;;;5040827;28;45375;-66
2022/09/06 16:24:23;;;;;;;;;2.33;2.33;;;;;;;;5037821;28;46106;-66
2022/09/06 16:26:49;;;;;;;;;2.00;1.00;;;;;;;;5038277;28;45400;-66
2022/09/06 16:29:16;;;;;;;;;5.00;4.00;;;;;;;;5036572;28;45360;-67
2022/09/06 16:31:42;;;;;;;;;3.00;3.00;;;;;;;;5037519;28;45468;-67
2022/09/06 16:34:08;;;;;;;;;3.00;3.00;;;;;;;;5034519;28;45680;-66
2022/09/06 16:36:33;;;;;;;;;3.33;3.33;;;;;;;;5034607;28;45218;-67
2022/09/06 16:38:58;;;;;;;;;3.00;3.00;;;;;;;;5037215;28;45190;-65
2022/09/06 16:41:25;;;;;;;;;9.33;9.33;;;;;;;;5041431;28;45240;-66
2022/09/06 16:43:51;;;;;;;;;4.00;3.33;;;;;;;;5034865;28;46082;-65
2022/09/06 16:46:17;;;;;;;;;2.67;2.67;;;;;;;;5038982;28;45437;-65
2022/09/06 16:48:42;;;;;;;;;6.00;4.00;;;;;;;;5040386;28;45532;-66
2022/09/06 16:51:09;;;;;;;;;3.67;2.00;;;;;;;;5036228;28;45301;-66
2022/09/06 16:53:35;;;;;;;;;4.00;4.00;;;;;;;;5038736;28;45406;-65
2022/09/06 16:56:03;;;;;;;;;7.33;4.33;;;;;;;;5033151;28;45435;-66
2022/09/06 16:58:28;;;;;;;;;4.67;3.00;;;;;;;;5038273;28;45462;-66
2022/09/06 17:00:54;;;;;;;;;2.33;2.00;;;;;;;;5035210;28;45587;-65
2022/09/06 17:03:19;;;;;;;;;3.67;3.67;;;;;;;;5037087;28;47110;-66
2022/09/06 17:05:48;;;;;;;;;3.67;3.67;;;;;;;;5043380;28;46339;-65
2022/09/06 17:08:13;;;;;;;;;3.00;3.00;;;;;;;;5043953;28;45334;-65
2022/09/06 17:10:38;;;;;;;;;3.00;2.33;;;;;;;;5045647;28;45500;-65
2022/09/06 17:13:03;;;;;;;;;2.00;2.00;;;;;;;;5057393;28;47764;-65
2022/09/06 17:17:03;;;;;;;;;6.33;5.00;;;;;;;;5043060;28;45381;-65
2022/09/06 17:18:14;;;;;;;;;4.00;4.00;;;;;;;;5044182;28;45324;-65
2022/09/06 17:20:40;;;;;;;;;3.33;3.33;;;;;;;;5040421;28;45411;-65
2022/09/06 17:23:05;;;;;;;;;4.33;4.33;;;;;;;;5043632;28;45364;-65
2022/09/06 17:25:31;;;;;;;;;4.00;4.00;;;;;;;;5040336;28;45357;-66
2022/09/06 17:27:57;;;;;;;;;4.00;4.00;;;;;;;;5043074;28;45399;-65
2022/09/06 17:30:22;;;;;;;;;5.00;5.00;;;;;;;;5038232;28;45400;-65
2022/09/06 17:32:47;;;;;;;;;7.67;6.33;;;;;;;;5043846;28;46286;-65
2022/09/06 17:35:12;;;;;;;;;4.00;3.00;;;;;;;;5037682;28;45427;-65